Time;durP1;ratioP1;P1;durP2;ratioP2;P2;SDS_P1;SDS_P2;PMS_P1;PMS_P2;Temp;Humidity;BMP_temperature;BMP_pressure;BME280_temperature;BME280_humidity;BME280_pressure;Samples;Min_cycle;Max_cycle;Signal;HPM_P1;HPM_P2
2024/04/16 00:00:54;;;;;;;;;;;;;;;;;;5461444;26;20362;-80
2024/04/16 00:03:22;;;;;;;;;;;;;;;;;;5460186;26;20010;-78
2024/04/16 00:05:48;;;;;;;;;;;;;;;;;;5452317;26;20005;-79
2024/04/16 00:08:17;;;;;;;;;;;;;;;;;;5444950;26;19999;-80
2024/04/16 00:10:43;;;;;;;;;;;;;;;;;;5452159;26;20065;-79
2024/04/16 00:13:12;;;;;;;;;;;;;;;;;;5454706;26;20010;-80
2024/04/16 00:15:37;;;;;;;;;;;;;;;;;;5438417;26;20002;-78
2024/04/16 00:18:06;;;;;;;;;;;;;;;;;;5443385;26;20018;-79
2024/04/16 00:20:32;;;;;;;;;;;;;;;;;;5424738;26;20068;-80
2024/04/16 00:23:01;;;;;;;;;;;;;;;;;;5424602;26;20015;-79
2024/04/16 00:25:27;;;;;;;;;;;;;;;;;;5424009;26;20084;-80
2024/04/16 00:27:55;;;;;;;;;;;;;;;;;;5442401;26;20011;-78
2024/04/16 00:30:25;;;;;;;;;;;;;;;;;;5424111;26;20026;-78
2024/04/16 00:32:53;;;;;;;;;;;;;;;;;;5453949;26;20006;-78
2024/04/16 00:35:19;;;;;;;;;;;;;;;;;;5426340;26;20064;-81
2024/04/16 00:37:48;;;;;;;;;;;;;;;;;;5440429;26;20011;-80
2024/04/16 00:40:14;;;;;;;;;;;;;;;;;;5422974;26;20022;-79
2024/04/16 00:42:42;;;;;;;;;;;;;;;;;;5424298;26;20011;-80
2024/04/16 00:45:08;;;;;;;;;;;;;;;;;;5423058;26;20567;-79
2024/04/16 00:47:37;;;;;;;;;;;;;;;;;;5448262;26;20002;-77
2024/04/16 00:50:03;;;;;;;;;;;;;;;;;;5431576;26;20026;-77
2024/04/16 00:52:32;;;;;;;;;;;;;;;;;;5424002;26;20343;-78
2024/04/16 00:54:58;;;;;;;;;;;;;;;;;;5436574;26;20087;-80
2024/04/16 00:57:26;;;;;;;;;;;;;;;;;;5439320;26;20002;-79
2024/04/16 00:59:54;;;;;;;;;;;;;;;;;;5422665;26;20011;-79
2024/04/16 01:02:22;;;;;;;;;;;;;;;;;;5422891;26;20098;-78
2024/04/16 01:04:48;;;;;;;;;;;;;;;;;;5422549;26;19999;-79
2024/04/16 01:07:17;;;;;;;;;;;;;;;;;;5441692;26;20025;-79
2024/04/16 01:09:43;;;;;;;;;;;;;;;;;;5458104;26;20003;-80
2024/04/16 01:12:12;;;;;;;;;;;;;;;;;;5426908;26;20018;-79
2024/04/16 01:14:37;;;;;;;;;;;;;;;;;;5422297;26;20003;-79
2024/04/16 01:17:06;;;;;;;;;;;;;;;;;;5424733;26;19995;-79
2024/04/16 01:19:32;;;;;;;;;;;;;;;;;;5439001;26;19995;-79
2024/04/16 01:22:01;;;;;;;;;;;;;;;;;;5426136;26;20088;-78
2024/04/16 01:24:27;;;;;;;;;;;;;;;;;;5426607;26;20022;-80
2024/04/16 01:26:56;;;;;;;;;;;;;;;;;;5438671;26;19998;-78
2024/04/16 01:29:22;;;;;;;;;;;;;;;;;;5461556;26;20002;-78
2024/04/16 01:31:51;;;;;;;;;;;;;;;;;;5462772;26;19999;-78
2024/04/16 01:34:17;;;;;;;;;;;;;;;;;;5462028;26;20087;-81
2024/04/16 01:36:45;;;;;;;;;;;;;;;;;;5461479;26;20010;-78
2024/04/16 01:39:11;;;;;;;;;;;;;;;;;;5430393;26;20007;-80
2024/04/16 01:41:40;;;;;;;;;;;;;;;;;;5445044;26;20003;-80
2024/04/16 01:44:06;;;;;;;;;;;;;;;;;;5446347;26;20014;-80
2024/04/16 01:46:35;;;;;;;;;;;;;;;;;;5437324;26;20025;-79
2024/04/16 01:49:00;;;;;;;;;;;;;;;;;;5435234;26;20025;-77
2024/04/16 01:51:29;;;;;;;;;;;;;;;;;;5426364;26;20482;-79
2024/04/16 01:53:55;;;;;;;;;;;;;;;;;;5427438;26;20011;-80
2024/04/16 01:56:24;;;;;;;;;;;;;;;;;;5440556;26;20021;-79
2024/04/16 01:58:50;;;;;;;;;;;;;;;;;;5435548;26;20022;-79
2024/04/16 02:01:18;;;;;;;;;;;;;;;;;;5424672;26;20011;-80
2024/04/16 02:03:44;;;;;;;;;;;;;;;;;;5434516;26;20011;-81
2024/04/16 02:06:13;;;;;;;;;;;;;;;;;;5436473;26;19998;-81
2024/04/16 02:08:39;;;;;;;;;;;;;;;;;;5455102;26;20006;-80
2024/04/16 02:11:07;;;;;;;;;;;;;;;;;;5462985;26;20002;-81
2024/04/16 02:13:33;;;;;;;;;;;;;;;;;;5461461;26;20087;-78
2024/04/16 02:16:02;;;;;;;;;;;;;;;;;;5460510;26;20014;-79
2024/04/16 02:18:28;;;;;;;;;;;;;;;;;;5456361;26;20026;-80
2024/04/16 02:20:56;;;;;;;;;;;;;;;;;;5427240;26;20376;-79
2024/04/16 02:23:22;;;;;;;;;;;;;;;;;;5427676;26;20003;-78
2024/04/16 02:25:52;;;;;;;;;;;;;;;;;;5432800;26;20018;-80
2024/04/16 02:28:18;;;;;;;;;;;;;;;;;;5465730;26;20031;-79
2024/04/16 02:30:46;;;;;;;;;;;;;;;;;;5443752;26;20026;-81
2024/04/16 02:33:12;;;;;;;;;;;;;;;;;;5430332;26;20010;-79
2024/04/16 02:35:41;;;;;;;;;;;;;;;;;;5432010;26;20003;-79
2024/04/16 02:38:07;;;;;;;;;;;;;;;;;;5444850;26;20065;-80
2024/04/16 02:40:35;;;;;;;;;;;;;;;;;;5425191;26;20007;-78
2024/04/16 02:43:01;;;;;;;;;;;;;;;;;;5424345;26;20533;-79
2024/04/16 02:45:30;;;;;;;;;;;;;;;;;;5423264;26;20010;-79
2024/04/16 02:47:56;;;;;;;;;;;;;;;;;;5447448;26;20397;-80
2024/04/16 02:50:25;;;;;;;;;;;;;;;;;;5425802;26;20007;-77
2024/04/16 02:52:51;;;;;;;;;;;;;;;;;;5427217;26;20026;-78
2024/04/16 02:55:20;;;;;;;;;;;;;;;;;;5426326;26;20002;-79
2024/04/16 02:57:49;;;;;;;;;;;;;;;;;;5454819;26;20003;-78
2024/04/16 03:00:15;;;;;;;;;;;;;;;;;;5445176;26;20068;-79
2024/04/16 03:02:43;;;;;;;;;;;;;;;;;;5426875;26;20015;-80
2024/04/16 03:05:09;;;;;;;;;;;;;;;;;;5424227;26;20006;-79
2024/04/16 03:07:38;;;;;;;;;;;;;;;;;;5451593;26;20002;-79
2024/04/16 03:10:04;;;;;;;;;;;;;;;;;;5432246;26;20154;-80
2024/04/16 03:12:33;;;;;;;;;;;;;;;;;;5426085;26;20007;-81
2024/04/16 03:14:59;;;;;;;;;;;;;;;;;;5426403;26;20003;-81
2024/04/16 03:17:29;;;;;;;;;;;;;;;;;;5445724;26;20358;-81
2024/04/16 03:19:55;;;;;;;;;;;;;;;;;;5429359;26;19999;-81
2024/04/16 03:22:24;;;;;;;;;;;;;;;;;;5427132;26;20042;-79
2024/04/16 03:24:50;;;;;;;;;;;;;;;;;;5427147;26;19995;-80
2024/04/16 03:27:18;;;;;;;;;;;;;;;;;;5439426;26;20016;-79
2024/04/16 03:29:44;;;;;;;;;;;;;;;;;;5454378;26;20085;-79
2024/04/16 03:32:13;;;;;;;;;;;;;;;;;;5442415;26;20011;-79
2024/04/16 03:34:39;;;;;;;;;;;;;;;;;;5428228;26;20002;-81
2024/04/16 03:37:08;;;;;;;;;;;;;;;;;;5426180;26;20083;-80
2024/04/16 03:39:36;;;;;;;;;;;;;;;;;;5424856;26;19995;-78
2024/04/16 03:42:05;;;;;;;;;;;;;;;;;;5453591;26;19998;-80
2024/04/16 03:44:31;;;;;;;;;;;;;;;;;;5432421;26;20021;-79
2024/04/16 03:46:59;;;;;;;;;;;;;;;;;;5457303;26;20342;-78
2024/04/16 03:49:25;;;;;;;;;;;;;;;;;;5424024;26;20084;-81
2024/04/16 03:51:54;;;;;;;;;;;;;;;;;;5424907;26;20011;-79
2024/04/16 03:54:20;;;;;;;;;;;;;;;;;;5426307;26;19999;-77
2024/04/16 03:56:48;;;;;;;;;;;;;;;;;;5437838;26;20017;-79
2024/04/16 03:59:37;;;;;;;;;;;;;;;;;;5427213;26;20003;-79
2024/04/16 04:02:05;;;;;;;;;;;;;;;;;;5420082;26;20003;-77
2024/04/16 04:04:34;;;;;;;;;;;;;;;;;;5450844;26;20026;-77
2024/04/16 04:07:00;;;;;;;;;;;;;;;;;;5426107;26;20007;-79
2024/04/16 04:09:28;;;;;;;;;;;;;;;;;;5429759;26;20021;-78
2024/04/16 04:11:54;;;;;;;;;;;;;;;;;;5455198;26;20010;-80
2024/04/16 04:14:23;;;;;;;;;;;;;;;;;;5463711;26;20021;-80
2024/04/16 04:16:49;;;;;;;;;;;;;;;;;;5457454;26;19999;-80
2024/04/16 04:19:17;;;;;;;;;;;;;;;;;;5445546;26;20086;-79
2024/04/16 04:21:43;;;;;;;;;;;;;;;;;;5437310;26;20003;-79
2024/04/16 04:24:16;;;;;;;;;;;;;;;;;;5421034;26;20140;-78
2024/04/16 04:26:42;;;;;;;;;;;;;;;;;;5422541;26;20022;-79
2024/04/16 04:29:11;;;;;;;;;;;;;;;;;;5422178;26;20691;-80
2024/04/16 04:31:37;;;;;;;;;;;;;;;;;;5446851;26;20006;-80
2024/04/16 04:34:06;;;;;;;;;;;;;;;;;;5460248;26;20336;-80
2024/04/16 04:36:31;;;;;;;;;;;;;;;;;;5449849;26;20082;-80
2024/04/16 04:39:00;;;;;;;;;;;;;;;;;;5442370;26;20010;-81
2024/04/16 04:41:26;;;;;;;;;;;;;;;;;;5440700;26;20459;-79
2024/04/16 04:43:55;;;;;;;;;;;;;;;;;;5438953;26;20017;-78
2024/04/16 04:46:21;;;;;;;;;;;;;;;;;;5441235;26;20022;-78
2024/04/16 04:48:50;;;;;;;;;;;;;;;;;;5442399;26;20057;-80
2024/04/16 04:51:16;;;;;;;;;;;;;;;;;;5443506;26;20010;-81
2024/04/16 04:56:28;;;;;;;;;;;;;;;;;;5444242;26;20477;-80
2024/04/16 04:58:54;;;;;;;;;;;;;;;;;;5449425;26;20002;-81
2024/04/16 05:01:22;;;;;;;;;;;;;;;;;;5455920;26;20029;-79
2024/04/16 05:03:48;;;;;;;;;;;;;;;;;;5440334;26;20030;-81
2024/04/16 05:06:17;;;;;;;;;;;;;;;;;;5454106;26;20006;-80
2024/04/16 05:08:43;;;;;;;;;;;;;;;;;;5448501;26;20011;-82
2024/04/16 05:11:11;;;;;;;;;;;;;;;;;;5449999;26;20065;-83
2024/04/16 05:13:37;;;;;;;;;;;;;;;;;;5451635;26;20010;-81
2024/04/16 05:16:06;;;;;;;;;;;;;;;;;;5437876;26;20095;-78
2024/04/16 05:18:32;;;;;;;;;;;;;;;;;;5442795;26;20025;-78
2024/04/16 05:21:00;;;;;;;;;;;;;;;;;;5452708;26;20006;-79
2024/04/16 05:23:26;;;;;;;;;;;;;;;;;;5448546;26;20227;-81
2024/04/16 05:25:55;;;;;;;;;;;;;;;;;;5454914;26;20017;-80
2024/04/16 05:28:21;;;;;;;;;;;;;;;;;;5456692;26;19998;-80
2024/04/16 05:30:49;;;;;;;;;;;;;;;;;;5448432;26;19995;-80
2024/04/16 05:33:15;;;;;;;;;;;;;;;;;;5447201;26;20060;-82
2024/04/16 05:35:44;;;;;;;;;;;;;;;;;;5460551;26;20014;-81
2024/04/16 05:38:10;;;;;;;;;;;;;;;;;;5451062;26;20064;-80
2024/04/16 05:40:38;;;;;;;;;;;;;;;;;;5451175;26;20018;-80
2024/04/16 05:43:04;;;;;;;;;;;;;;;;;;5456550;26;20079;-81
2024/04/16 05:45:33;;;;;;;;;;;;;;;;;;5456482;26;20003;-86
2024/04/16 05:47:59;;;;;;;;;;;;;;;;;;5455507;26;20045;-83
2024/04/16 05:50:27;;;;;;;;;;;;;;;;;;5449386;26;20011;-82
2024/04/16 05:52:53;;;;;;;;;;;;;;;;;;5444350;26;20003;-84
2024/04/16 05:55:22;;;;;;;;;;;;;;;;;;5454091;26;20003;-81
2024/04/16 05:57:48;;;;;;;;;;;;;;;;;;5447526;26;20065;-82
2024/04/16 06:00:17;;;;;;;;;;;;;;;;;;5450027;26;20022;-82
2024/04/16 06:02:43;;;;;;;;;;;;;;;;;;5449507;26;20046;-81
2024/04/16 06:05:11;;;;;;;;;;;;;;;;;;5452100;26;20107;-82
2024/04/16 06:07:37;;;;;;;;;;;;;;;;;;5453141;26;20087;-81
2024/04/16 06:10:06;;;;;;;;;;;;;;;;;;5448711;26;20424;-80
2024/04/16 06:12:32;;;;;;;;;;;;;;;;;;5436644;26;20064;-81
2024/04/16 06:15:01;;;;;;;;;;;;;;;;;;5445715;26;20011;-81
2024/04/16 06:17:27;;;;;;;;;;;;;;;;;;5447168;26;20046;-83
2024/04/16 06:19:55;;;;;;;;;;;;;;;;;;5428694;26;19999;-83
2024/04/16 06:22:21;;;;;;;;;;;;;;;;;;5427122;26;20073;-83
2024/04/16 06:24:50;;;;;;;;;;;;;;;;;;5461916;26;20006;-82
2024/04/16 06:27:15;;;;;;;;;;;;;;;;;;5460727;26;20068;-83
2024/04/16 06:29:44;;;;;;;;;;;;;;;;;;5439795;26;20006;-80
2024/04/16 06:32:11;;;;;;;;;;;;;;;;;;5465708;26;20003;-83
2024/04/16 06:34:40;;;;;;;;;;;;;;;;;;5462987;26;20099;-82
2024/04/16 06:37:05;;;;;;;;;;;;;;;;;;5446467;26;20011;-81
2024/04/16 06:39:34;;;;;;;;;;;;;;;;;;5464020;26;19999;-80
2024/04/16 06:42:02;;;;;;;;;;;;;;;;;;5468734;26;20003;-80
2024/04/16 06:44:30;;;;;;;;;;;;;;;;;;5440299;26;20030;-81
2024/04/16 06:46:56;;;;;;;;;;;;;;;;;;5430242;26;20518;-81
2024/04/16 06:49:26;;;;;;;;;;;;;;;;;;5431016;26;19999;-81
2024/04/16 06:51:52;;;;;;;;;;;;;;;;;;5431100;26;20074;-81
2024/04/16 06:54:20;;;;;;;;;;;;;;;;;;5432179;26;20003;-82
2024/04/16 06:56:46;;;;;;;;;;;;;;;;;;5432758;26;20135;-81
2024/04/16 06:59:15;;;;;;;;;;;;;;;;;;5447903;26;19999;-83
2024/04/16 07:01:41;;;;;;;;;;;;;;;;;;5434126;26;20054;-81
2024/04/16 07:04:09;;;;;;;;;;;;;;;;;;5433403;26;20064;-82
2024/04/16 07:06:35;;;;;;;;;;;;;;;;;;5433913;26;20021;-82
2024/04/16 07:09:04;;;;;;;;;;;;;;;;;;5433523;26;20011;-82
2024/04/16 07:11:30;;;;;;;;;;;;;;;;;;5433270;26;20064;-82
2024/04/16 07:13:58;;;;;;;;;;;;;;;;;;5435267;26;19999;-81
2024/04/16 07:16:26;;;;;;;;;;;;;;;;;;5437143;26;20003;-82
2024/04/16 07:18:54;;;;;;;;;;;;;;;;;;5457134;26;20021;-80
2024/04/16 07:21:20;;;;;;;;;;;;;;;;;;5434123;26;20480;-83
2024/04/16 07:23:53;;;;;;;;;;;;;;;;;;5432732;26;20158;-84
2024/04/16 07:26:19;;;;;;;;;;;;;;;;;;5431800;26;20095;-79
2024/04/16 07:28:48;;;;;;;;;;;;;;;;;;5430628;26;20010;-80
2024/04/16 07:31:14;;;;;;;;;;;;;;;;;;5441817;26;20018;-81
2024/04/16 07:33:42;;;;;;;;;;;;;;;;;;5459011;26;20042;-81
2024/04/16 07:36:08;;;;;;;;;;;;;;;;;;5453577;26;20007;-83
2024/04/16 07:38:37;;;;;;;;;;;;;;;;;;5438182;26;20060;-82
2024/04/16 07:41:03;;;;;;;;;;;;;;;;;;5433771;26;19996;-81
2024/04/16 07:43:31;;;;;;;;;;;;;;;;;;5430309;26;20063;-82
2024/04/16 07:45:57;;;;;;;;;;;;;;;;;;5443069;26;19999;-81
2024/04/16 07:48:26;;;;;;;;;;;;;;;;;;5466198;26;20473;-82
2024/04/16 07:50:55;;;;;;;;;;;;;;;;;;5461320;26;20076;-82
2024/04/16 07:53:20;;;;;;;;;;;;;;;;;;5449416;26;20011;-81
2024/04/16 07:55:49;;;;;;;;;;;;;;;;;;5458172;26;20064;-80
2024/04/16 07:58:15;;;;;;;;;;;;;;;;;;5432574;26;20060;-80
2024/04/16 08:00:44;;;;;;;;;;;;;;;;;;5433070;26;20010;-81
2024/04/16 08:03:09;;;;;;;;;;;;;;;;;;5435978;26;20062;-80
2024/04/16 08:05:38;;;;;;;;;;;;;;;;;;5461365;26;20010;-80
2024/04/16 08:08:05;;;;;;;;;;;;;;;;;;5460852;26;20006;-82
2024/04/16 08:10:33;;;;;;;;;;;;;;;;;;5431950;26;20409;-81
2024/04/16 08:12:59;;;;;;;;;;;;;;;;;;5459728;26;20028;-80
2024/04/16 08:15:28;;;;;;;;;;;;;;;;;;5468712;26;20030;-80
2024/04/16 08:17:54;;;;;;;;;;;;;;;;;;5468387;26;20059;-82
2024/04/16 08:20:22;;;;;;;;;;;;;;;;;;5467962;26;20010;-80
2024/04/16 08:22:48;;;;;;;;;;;;;;;;;;5435472;26;20067;-81
2024/04/16 08:25:17;;;;;;;;;;;;;;;;;;5432796;26;20014;-80
2024/04/16 08:27:43;;;;;;;;;;;;;;;;;;5431532;26;20011;-81
2024/04/16 08:30:12;;;;;;;;;;;;;;;;;;5434656;26;19999;-82
2024/04/16 08:32:38;;;;;;;;;;;;;;;;;;5437657;26;20025;-80
2024/04/16 08:35:06;;;;;;;;;;;;;;;;;;5436326;26;20502;-80
2024/04/16 08:37:32;;;;;;;;;;;;;;;;;;5434502;26;20007;-80
2024/04/16 08:40:01;;;;;;;;;;;;;;;;;;5436004;26;20068;-79
2024/04/16 08:42:27;;;;;;;;;;;;;;;;;;5457085;26;19999;-80
2024/04/16 08:44:56;;;;;;;;;;;;;;;;;;5446090;26;20021;-81
2024/04/16 08:47:22;;;;;;;;;;;;;;;;;;5434312;26;20116;-79
2024/04/16 08:49:51;;;;;;;;;;;;;;;;;;5435008;26;20040;-80
2024/04/16 08:52:17;;;;;;;;;;;;;;;;;;5467208;26;20025;-80
2024/04/16 08:54:45;;;;;;;;;;;;;;;;;;5470175;26;20006;-80
2024/04/16 08:57:11;;;;;;;;;;;;;;;;;;5469777;26;20067;-80
2024/04/16 08:59:40;;;;;;;;;;;;;;;;;;5472284;26;20006;-80
2024/04/16 09:02:06;;;;;;;;;;;;;;;;;;5450337;26;20056;-79
2024/04/16 09:04:34;;;;;;;;;;;;;;;;;;5455455;26;20010;-80
2024/04/16 09:07:00;;;;;;;;;;;;;;;;;;5441074;26;20026;-80
2024/04/16 09:09:29;;;;;;;;;;;;;;;;;;5433152;26;20062;-79
2024/04/16 09:11:55;;;;;;;;;;;;;;;;;;5446990;26;19999;-80
2024/04/16 09:14:23;;;;;;;;;;;;;;;;;;5436531;26;20014;-81
2024/04/16 09:16:49;;;;;;;;;;;;;;;;;;5432311;26;20088;-82
2024/04/16 09:19:18;;;;;;;;;;;;;;;;;;5430248;26;20014;-81
2024/04/16 09:21:44;;;;;;;;;;;;;;;;;;5439612;26;20090;-82
2024/04/16 09:24:13;;;;;;;;;;;;;;;;;;5451525;26;20014;-81
2024/04/16 09:26:39;;;;;;;;;;;;;;;;;;5429976;26;20023;-83
2024/04/16 09:29:08;;;;;;;;;;;;;;;;;;5428680;26;20022;-83
2024/04/16 09:31:34;;;;;;;;;;;;;;;;;;5427379;26;20070;-82
2024/04/16 09:34:02;;;;;;;;;;;;;;;;;;5427020;26;19999;-82
2024/04/16 09:36:28;;;;;;;;;;;;;;;;;;5427063;26;20136;-83
2024/04/16 09:38:57;;;;;;;;;;;;;;;;;;5426504;26;20021;-83
2024/04/16 09:41:23;;;;;;;;;;;;;;;;;;5426617;26;20011;-83
2024/04/16 09:43:51;;;;;;;;;;;;;;;;;;5427086;26;20083;-84
2024/04/16 09:46:17;;;;;;;;;;;;;;;;;;5427768;26;20022;-83
2024/04/16 09:48:46;;;;;;;;;;;;;;;;;;5429289;26;20421;-84
2024/04/16 09:51:12;;;;;;;;;;;;;;;;;;5431305;26;20003;-83
2024/04/16 09:53:43;;;;;;;;;;;;;;;;;;5434005;26;20042;-84
2024/04/16 09:56:09;;;;;;;;;;;;;;;;;;5432485;26;20395;-83
2024/04/16 09:58:38;;;;;;;;;;;;;;;;;;5438896;26;20485;-83
2024/04/16 10:01:04;;;;;;;;;;;;;;;;;;5451079;26;20031;-84
2024/04/16 10:03:32;;;;;;;;;;;;;;;;;;5431047;26;20084;-82
2024/04/16 10:05:58;;;;;;;;;;;;;;;;;;5430647;26;20025;-80
2024/04/16 10:08:27;;;;;;;;;;;;;;;;;;5430964;26;20038;-84
2024/04/16 10:10:56;;;;;;;;;;;;;;;;;;5432319;26;20025;-83
2024/04/16 10:13:21;;;;;;;;;;;;;;;;;;5431227;26;20014;-83
2024/04/16 10:15:50;;;;;;;;;;;;;;;;;;5445655;26;20061;-83
2024/04/16 10:18:16;;;;;;;;;;;;;;;;;;5428554;26;20003;-84
2024/04/16 10:20:45;;;;;;;;;;;;;;;;;;5456845;26;20014;-83
2024/04/16 10:23:11;;;;;;;;;;;;;;;;;;5434379;26;20003;-83
2024/04/16 10:25:39;;;;;;;;;;;;;;;;;;5467075;26;20007;-84
2024/04/16 10:28:06;;;;;;;;;;;;;;;;;;5438445;26;20003;-84
2024/04/16 10:30:35;;;;;;;;;;;;;;;;;;5430683;26;20007;-84
2024/04/16 10:33:01;;;;;;;;;;;;;;;;;;5430757;26;20061;-83
2024/04/16 10:35:29;;;;;;;;;;;;;;;;;;5430155;26;19999;-83
2024/04/16 10:37:55;;;;;;;;;;;;;;;;;;5439669;26;19994;-82
2024/04/16 10:40:24;;;;;;;;;;;;;;;;;;5446749;26;20019;-80
2024/04/16 10:42:50;;;;;;;;;;;;;;;;;;5444605;26;19999;-80
2024/04/16 10:45:18;;;;;;;;;;;;;;;;;;5430059;26;20091;-83
2024/04/16 10:47:44;;;;;;;;;;;;;;;;;;5430353;26;20003;-82
2024/04/16 10:50:13;;;;;;;;;;;;;;;;;;5461233;26;20020;-82
2024/04/16 10:52:39;;;;;;;;;;;;;;;;;;5430895;26;20026;-83
2024/04/16 10:55:08;;;;;;;;;;;;;;;;;;5446965;26;20003;-81
2024/04/16 10:57:33;;;;;;;;;;;;;;;;;;5444181;26;20404;-81
2024/04/16 11:00:02;;;;;;;;;;;;;;;;;;5457536;26;20002;-83
2024/04/16 11:02:28;;;;;;;;;;;;;;;;;;5423187;26;20033;-83
2024/04/16 11:04:57;;;;;;;;;;;;;;;;;;5425750;26;20002;-81
2024/04/16 11:07:23;;;;;;;;;;;;;;;;;;5425218;26;20007;-82
2024/04/16 11:09:51;;;;;;;;;;;;;;;;;;5440933;26;20003;-80
2024/04/16 11:12:20;;;;;;;;;;;;;;;;;;5427991;26;20007;-80
2024/04/16 11:14:48;;;;;;;;;;;;;;;;;;5451008;26;20002;-82
2024/04/16 11:17:14;;;;;;;;;;;;;;;;;;5448826;26;20034;-80
2024/04/16 11:19:43;;;;;;;;;;;;;;;;;;5449639;26;20006;-80
2024/04/16 11:22:09;;;;;;;;;;;;;;;;;;5453230;26;20811;-82
2024/04/16 11:24:37;;;;;;;;;;;;;;;;;;5449640;26;19995;-81
2024/04/16 11:27:03;;;;;;;;;;;;;;;;;;5451208;26;20010;-81
2024/04/16 11:29:32;;;;;;;;;;;;;;;;;;5443079;26;20508;-80
2024/04/16 11:32:01;;;;;;;;;;;;;;;;;;5440239;26;20002;-80
2024/04/16 11:34:30;;;;;;;;;;;;;;;;;;5445639;26;20022;-81
2024/04/16 11:36:56;;;;;;;;;;;;;;;;;;5443050;26;20018;-82
2024/04/16 11:39:25;;;;;;;;;;;;;;;;;;5453199;26;20060;-81
2024/04/16 11:41:51;;;;;;;;;;;;;;;;;;5450269;26;20003;-82
2024/04/16 11:44:20;;;;;;;;;;;;;;;;;;5446452;26;20021;-84
2024/04/16 11:46:46;;;;;;;;;;;;;;;;;;5449600;26;20011;-80
2024/04/16 11:49:14;;;;;;;;;;;;;;;;;;5431406;26;20064;-80
2024/04/16 11:51:40;;;;;;;;;;;;;;;;;;5443751;26;19998;-81
2024/04/16 11:54:09;;;;;;;;;;;;;;;;;;5444339;26;20017;-83
2024/04/16 11:56:35;;;;;;;;;;;;;;;;;;5423862;26;20007;-81
2024/04/16 11:59:03;;;;;;;;;;;;;;;;;;5450325;26;19998;-82
2024/04/16 12:01:29;;;;;;;;;;;;;;;;;;5460631;26;20002;-82
2024/04/16 12:03:58;;;;;;;;;;;;;;;;;;5424301;26;20063;-82
2024/04/16 12:06:24;;;;;;;;;;;;;;;;;;5423922;26;20463;-81
2024/04/16 12:08:52;;;;;;;;;;;;;;;;;;5432366;26;20071;-81
2024/04/16 12:11:18;;;;;;;;;;;;;;;;;;5457677;26;20576;-81
2024/04/16 12:13:47;;;;;;;;;;;;;;;;;;5451500;26;20015;-83
2024/04/16 12:16:13;;;;;;;;;;;;;;;;;;5444724;26;20010;-80
2024/04/16 12:18:41;;;;;;;;;;;;;;;;;;5458544;26;20462;-80
2024/04/16 12:21:07;;;;;;;;;;;;;;;;;;5444382;26;20003;-81
2024/04/16 12:23:37;;;;;;;;;;;;;;;;;;5438585;26;20056;-80
2024/04/16 12:26:02;;;;;;;;;;;;;;;;;;5451904;26;20017;-80
2024/04/16 12:28:31;;;;;;;;;;;;;;;;;;5421735;26;20027;-80
2024/04/16 12:30:57;;;;;;;;;;;;;;;;;;5436207;26;20068;-80
2024/04/16 12:33:26;;;;;;;;;;;;;;;;;;5432538;26;20413;-81
2024/04/16 12:35:52;;;;;;;;;;;;;;;;;;5428018;26;20003;-82
2024/04/16 12:38:20;;;;;;;;;;;;;;;;;;5418283;26;19970;-81
2024/04/16 12:40:46;;;;;;;;;;;;;;;;;;5430658;26;20006;-80
2024/04/16 12:43:15;;;;;;;;;;;;;;;;;;5447233;26;20029;-81
2024/04/16 12:45:41;;;;;;;;;;;;;;;;;;5419650;26;20003;-81
2024/04/16 12:48:10;;;;;;;;;;;;;;;;;;5420341;26;20021;-82
2024/04/16 12:50:36;;;;;;;;;;;;;;;;;;5420601;26;20117;-81
2024/04/16 12:53:04;;;;;;;;;;;;;;;;;;5422181;26;19999;-82
2024/04/16 12:55:30;;;;;;;;;;;;;;;;;;5441671;26;20010;-81
2024/04/16 12:57:59;;;;;;;;;;;;;;;;;;5429134;26;20163;-82
2024/04/16 13:00:25;;;;;;;;;;;;;;;;;;5435857;26;20045;-81
2024/04/16 13:02:53;;;;;;;;;;;;;;;;;;5427617;26;20010;-82
2024/04/16 13:05:19;;;;;;;;;;;;;;;;;;5434805;26;20003;-81
2024/04/16 13:07:48;;;;;;;;;;;;;;;;;;5439184;26;20082;-81
2024/04/16 13:10:14;;;;;;;;;;;;;;;;;;5463797;26;20007;-81
2024/04/16 13:12:43;;;;;;;;;;;;;;;;;;5435067;26;20014;-81
2024/04/16 13:15:08;;;;;;;;;;;;;;;;;;5441769;26;20007;-79
2024/04/16 13:17:37;;;;;;;;;;;;;;;;;;5429754;26;20029;-79
2024/04/16 13:20:03;;;;;;;;;;;;;;;;;;5432362;26;20096;-80
2024/04/16 13:22:32;;;;;;;;;;;;;;;;;;5432075;26;20026;-82
2024/04/16 13:24:58;;;;;;;;;;;;;;;;;;5431097;26;20011;-80
2024/04/16 13:27:26;;;;;;;;;;;;;;;;;;5430517;26;20088;-82
2024/04/16 13:29:53;;;;;;;;;;;;;;;;;;5431852;26;20003;-83
2024/04/16 13:32:22;;;;;;;;;;;;;;;;;;5429328;26;20055;-83
2024/04/16 13:34:48;;;;;;;;;;;;;;;;;;5427883;26;20094;-80
2024/04/16 13:37:16;;;;;;;;;;;;;;;;;;5425545;26;20892;-81
2024/04/16 13:39:42;;;;;;;;;;;;;;;;;;5427362;26;20006;-80
2024/04/16 13:42:11;;;;;;;;;;;;;;;;;;5430694;26;20003;-83
2024/04/16 13:44:40;;;;;;;;;;;;;;;;;;5430275;26;20090;-82
2024/04/16 13:47:06;;;;;;;;;;;;;;;;;;5430894;26;19999;-82
2024/04/16 13:49:34;;;;;;;;;;;;;;;;;;5430295;26;20028;-81
2024/04/16 13:52:00;;;;;;;;;;;;;;;;;;5430380;26;20064;-82
2024/04/16 13:54:29;;;;;;;;;;;;;;;;;;5429808;26;20029;-80
2024/04/16 13:56:55;;;;;;;;;;;;;;;;;;5429436;26;20003;-81
2024/04/16 13:59:24;;;;;;;;;;;;;;;;;;5461996;26;20030;-82
2024/04/16 14:01:50;;;;;;;;;;;;;;;;;;5462819;26;20025;-80
2024/04/16 14:04:19;;;;;;;;;;;;;;;;;;5444939;26;19995;-80
2024/04/16 14:06:45;;;;;;;;;;;;;;;;;;5424802;26;19999;-82
2024/04/16 14:09:13;;;;;;;;;;;;;;;;;;5425266;26;20060;-82
2024/04/16 14:11:42;;;;;;;;;;;;;;;;;;5426927;26;20541;-82
2024/04/16 14:14:08;;;;;;;;;;;;;;;;;;5426369;26;19999;-82
2024/04/16 14:16:37;;;;;;;;;;;;;;;;;;5431967;26;20006;-82
2024/04/16 14:19:03;;;;;;;;;;;;;;;;;;5444890;26;20916;-82
2024/04/16 14:21:32;;;;;;;;;;;;;;;;;;5446875;26;20624;-81
2024/04/16 14:23:58;;;;;;;;;;;;;;;;;;5434877;26;20022;-81
2024/04/16 14:26:26;;;;;;;;;;;;;;;;;;5444648;26;20002;-81
2024/04/16 14:28:52;;;;;;;;;;;;;;;;;;5451759;26;20010;-83
2024/04/16 14:31:21;;;;;;;;;;;;;;;;;;5464781;26;20002;-82
2024/04/16 14:33:47;;;;;;;;;;;;;;;;;;5453770;26;20003;-81
2024/04/16 14:36:16;;;;;;;;;;;;;;;;;;5450753;26;20020;-80
2024/04/16 14:38:42;;;;;;;;;;;;;;;;;;5446681;26;20002;-82
2024/04/16 14:41:10;;;;;;;;;;;;;;;;;;5461097;26;19998;-82
2024/04/16 14:43:36;;;;;;;;;;;;;;;;;;5445107;26;20002;-81
2024/04/16 14:46:05;;;;;;;;;;;;;;;;;;5453193;26;20021;-81
2024/04/16 14:48:31;;;;;;;;;;;;;;;;;;5459445;26;20010;-81
2024/04/16 14:51:00;;;;;;;;;;;;;;;;;;5459080;26;20003;-82
2024/04/16 14:53:26;;;;;;;;;;;;;;;;;;5442426;26;20022;-80
2024/04/16 14:55:54;;;;;;;;;;;;;;;;;;5458108;26;20003;-81
2024/04/16 14:58:20;;;;;;;;;;;;;;;;;;5451712;26;20439;-81
2024/04/16 15:00:49;;;;;;;;;;;;;;;;;;5463394;26;20003;-82
2024/04/16 15:03:15;;;;;;;;;;;;;;;;;;5459512;26;20010;-82
2024/04/16 15:05:43;;;;;;;;;;;;;;;;;;5444556;26;20029;-82
2024/04/16 15:08:09;;;;;;;;;;;;;;;;;;5443473;26;20018;-86
2024/04/16 15:10:38;;;;;;;;;;;;;;;;;;5429357;26;19999;-82
2024/04/16 15:13:06;;;;;;;;;;;;;;;;;;5448339;26;20025;-81
2024/04/16 15:15:35;;;;;;;;;;;;;;;;;;5451086;26;20401;-82
2024/04/16 15:18:01;;;;;;;;;;;;;;;;;;5453741;26;20003;-80
2024/04/16 15:20:30;;;;;;;;;;;;;;;;;;5427506;26;19999;-82
2024/04/16 15:22:57;;;;;;;;;;;;;;;;;;5425494;26;20406;-82
2024/04/16 15:25:26;;;;;;;;;;;;;;;;;;5447837;26;20003;-81
2024/04/16 15:27:54;;;;;;;;;;;;;;;;;;5442426;26;20418;-80
2024/04/16 15:30:22;;;;;;;;;;;;;;;;;;5440566;26;20006;-79
2024/04/16 15:32:48;;;;;;;;;;;;;;;;;;5445209;26;20002;-82
2024/04/16 15:35:17;;;;;;;;;;;;;;;;;;5429145;26;20085;-82
2024/04/16 15:37:43;;;;;;;;;;;;;;;;;;5425375;26;20007;-80
2024/04/16 15:40:11;;;;;;;;;;;;;;;;;;5423718;26;20018;-80
2024/04/16 15:42:37;;;;;;;;;;;;;;;;;;5425222;26;20025;-79
2024/04/16 15:45:06;;;;;;;;;;;;;;;;;;5424798;26;20003;-79
2024/04/16 15:47:32;;;;;;;;;;;;;;;;;;5444566;26;20002;-79
2024/04/16 15:50:01;;;;;;;;;;;;;;;;;;5460895;26;20025;-79
2024/04/16 15:52:27;;;;;;;;;;;;;;;;;;5455385;26;20002;-81
2024/04/16 15:54:55;;;;;;;;;;;;;;;;;;5443159;26;20006;-81
2024/04/16 15:57:21;;;;;;;;;;;;;;;;;;5444739;26;19995;-80
2024/04/16 15:59:50;;;;;;;;;;;;;;;;;;5460220;26;20497;-80
2024/04/16 16:02:16;;;;;;;;;;;;;;;;;;5454910;26;20091;-81
2024/04/16 16:04:46;;;;;;;;;;;;;;;;;;5458615;26;19994;-80
2024/04/16 16:07:12;;;;;;;;;;;;;;;;;;5454149;26;20010;-83
2024/04/16 16:09:42;;;;;;;;;;;;;;;;;;5455774;26;20052;-81
2024/04/16 16:12:08;;;;;;;;;;;;;;;;;;5449354;26;20083;-78
2024/04/16 16:14:38;;;;;;;;;;;;;;;;;;5457660;26;20416;-79
2024/04/16 16:17:04;;;;;;;;;;;;;;;;;;5452907;26;20046;-80
2024/04/16 16:19:33;;;;;;;;;;;;;;;;;;5423699;26;20026;-80
2024/04/16 16:21:59;;;;;;;;;;;;;;;;;;5427897;26;20018;-78
2024/04/16 16:24:27;;;;;;;;;;;;;;;;;;5432252;26;19990;-79
2024/04/16 16:26:56;;;;;;;;;;;;;;;;;;5431722;26;20074;-80
2024/04/16 16:29:25;;;;;;;;;;;;;;;;;;5440005;26;19994;-79
2024/04/16 16:31:51;;;;;;;;;;;;;;;;;;5450984;26;20075;-80
2024/04/16 16:34:19;;;;;;;;;;;;;;;;;;5442661;26;20704;-80
2024/04/16 16:36:45;;;;;;;;;;;;;;;;;;5452299;26;20029;-78
2024/04/16 16:39:14;;;;;;;;;;;;;;;;;;5452146;26;20007;-78
2024/04/16 16:41:41;;;;;;;;;;;;;;;;;;5457525;26;20002;-80
2024/04/16 16:44:10;;;;;;;;;;;;;;;;;;5451633;26;20035;-81
2024/04/16 16:46:36;;;;;;;;;;;;;;;;;;5454681;26;19998;-81
2024/04/16 16:49:06;;;;;;;;;;;;;;;;;;5450184;26;20002;-83